createdAt,value
2023-05-14T00:00:45.131Z,28.03
2023-05-14T00:03:11.964Z,28.50
2023-05-14T00:05:38.704Z,29.30
2023-05-14T00:08:05.490Z,28.37
2023-05-14T00:10:32.213Z,29.10
2023-05-14T00:12:58.812Z,29.30
2023-05-14T00:15:25.366Z,27.60
2023-05-14T00:17:51.916Z,28.33
2023-05-14T00:20:18.895Z,28.87
2023-05-14T00:22:45.507Z,31.00
2023-05-14T00:25:12.035Z,29.00
2023-05-14T00:27:38.642Z,30.07
2023-05-14T00:30:06.858Z,29.77
2023-05-14T00:32:33.897Z,27.97
2023-05-14T00:35:00.798Z,28.63
2023-05-14T00:37:27.379Z,28.37
2023-05-14T00:39:53.881Z,29.80
2023-05-14T00:42:20.483Z,29.63
2023-05-14T00:44:46.980Z,30.57
2023-05-14T00:47:13.629Z,30.97
2023-05-14T00:49:41.061Z,32.27
2023-05-14T00:52:08.601Z,31.77
2023-05-14T00:54:36.427Z,32.03
2023-05-14T00:57:04.703Z,31.47
2023-05-14T00:59:31.851Z,29.47
2023-05-14T01:01:58.657Z,30.53
2023-05-14T01:04:25.291Z,28.17
2023-05-14T01:07:02.088Z,28.93
2023-05-14T01:09:44.203Z,30.20
2023-05-14T01:12:51.797Z,30.80
2023-05-14T01:15:27.753Z,29.63
2023-05-14T01:17:59.895Z,30.43
2023-05-14T01:20:26.916Z,31.43
2023-05-14T01:22:53.466Z,31.07
2023-05-14T01:25:20.421Z,28.73
2023-05-14T01:27:49.738Z,27.23
2023-05-14T01:30:36.176Z,26.60
2023-05-14T01:33:06.760Z,27.47
2023-05-14T01:35:33.631Z,30.17
2023-05-14T01:38:02.076Z,29.40
2023-05-14T01:40:29.712Z,29.10
2023-05-14T01:42:56.688Z,28.63
2023-05-14T01:45:24.127Z,31.27
2023-05-14T01:47:51.637Z,30.53
2023-05-14T01:50:18.346Z,32.53
2023-05-14T01:52:44.935Z,32.20
2023-05-14T01:55:11.506Z,34.87
2023-05-14T01:57:38.059Z,34.17
2023-05-14T02:00:05.553Z,35.53
2023-05-14T02:02:32.196Z,35.10
2023-05-14T02:04:58.785Z,34.43
2023-05-14T02:07:25.430Z,35.57
2023-05-14T02:09:52.141Z,35.60
2023-05-14T02:12:18.673Z,34.17
2023-05-14T02:14:45.708Z,36.17
2023-05-14T02:17:15.672Z,35.80
2023-05-14T02:19:42.195Z,36.57
2023-05-14T02:22:08.708Z,37.13
2023-05-14T02:24:35.325Z,36.00
2023-05-14T02:27:01.976Z,35.30
2023-05-14T02:29:28.505Z,34.40
2023-05-14T02:31:55.930Z,35.63
2023-05-14T02:34:22.842Z,34.67
2023-05-14T02:36:49.617Z,36.67
2023-05-14T02:39:16.274Z,34.90
2023-05-14T02:41:42.842Z,36.03
2023-05-14T02:44:09.351Z,35.27
2023-05-14T02:46:35.952Z,35.43
2023-05-14T02:49:03.029Z,35.30
2023-05-14T02:51:29.607Z,34.23
2023-05-14T02:53:56.153Z,36.13
2023-05-14T02:56:22.689Z,38.07
2023-05-14T02:58:49.181Z,37.23
2023-05-14T03:01:16.430Z,37.53
2023-05-14T03:03:43.477Z,40.40
2023-05-14T03:06:10.747Z,42.27
2023-05-14T03:08:37.303Z,41.57
2023-05-14T03:11:04.003Z,42.10
2023-05-14T03:13:30.932Z,39.53
2023-05-14T03:15:57.451Z,40.40
2023-05-14T03:18:24.115Z,38.80
2023-05-14T03:20:50.763Z,37.53
2023-05-14T03:23:17.356Z,37.37
2023-05-14T03:25:43.857Z,36.60
2023-05-14T03:28:10.438Z,35.97
2023-05-14T03:30:37.069Z,35.00
2023-05-14T03:33:04.096Z,35.63
2023-05-14T03:35:30.581Z,37.87
2023-05-14T03:37:59.080Z,37.53
2023-05-14T03:40:26.041Z,36.87
2023-05-14T03:42:52.688Z,38.00
2023-05-14T03:45:19.334Z,37.77
2023-05-14T03:47:45.854Z,37.70
2023-05-14T03:50:12.383Z,36.87
2023-05-14T03:52:38.982Z,37.53
2023-05-14T03:55:06.165Z,37.27
2023-05-14T03:57:32.791Z,38.03
2023-05-14T03:59:59.312Z,37.37
2023-05-14T04:02:25.945Z,36.53
2023-05-14T04:04:52.679Z,36.40
2023-05-14T04:07:19.347Z,36.90
2023-05-14T04:09:45.857Z,37.33
2023-05-14T04:12:12.409Z,36.83
2023-05-14T04:14:38.940Z,37.57
2023-05-14T04:17:05.457Z,37.30
2023-05-14T04:19:31.970Z,36.53
2023-05-14T04:21:58.496Z,36.70
2023-05-14T04:24:25.077Z,37.90
2023-05-14T04:26:51.612Z,37.90
2023-05-14T04:29:18.143Z,35.93
2023-05-14T04:31:44.792Z,39.57
2023-05-14T04:34:11.420Z,39.97
2023-05-14T04:36:37.958Z,38.77
2023-05-14T04:39:05.856Z,40.03
2023-05-14T04:41:32.447Z,38.07
2023-05-14T04:44:01.714Z,40.77
2023-05-14T04:46:28.645Z,41.27
2023-05-14T04:48:56.339Z,40.27
2023-05-14T04:51:23.249Z,44.83
2023-05-14T04:53:50.104Z,42.30
2023-05-14T04:56:16.631Z,44.47
2023-05-14T04:58:43.134Z,44.80
2023-05-14T05:01:09.895Z,45.53
2023-05-14T05:03:36.485Z,43.83
2023-05-14T05:06:03.349Z,43.70
2023-05-14T05:08:29.868Z,44.20
2023-05-14T05:10:56.379Z,45.57
2023-05-14T05:13:22.960Z,44.60
2023-05-14T05:15:49.504Z,48.97
2023-05-14T05:18:16.062Z,48.50
2023-05-14T05:20:42.566Z,47.80
2023-05-14T05:23:09.071Z,48.50
2023-05-14T05:25:36.151Z,47.77
2023-05-14T05:28:02.800Z,46.60
2023-05-14T05:30:30.108Z,46.40
2023-05-14T05:32:57.389Z,48.10
2023-05-14T05:35:24.033Z,47.80
2023-05-14T05:37:50.889Z,47.70
2023-05-14T05:40:17.619Z,47.30
2023-05-14T05:42:44.154Z,49.83
2023-05-14T05:45:10.989Z,50.63
2023-05-14T05:47:37.525Z,49.67
2023-05-14T05:50:04.611Z,52.60
2023-05-14T05:52:31.183Z,51.63
2023-05-14T05:54:57.732Z,51.23
2023-05-14T05:57:26.291Z,51.87
2023-05-14T05:59:53.123Z,52.00
2023-05-14T06:02:20.297Z,54.43
2023-05-14T06:04:46.883Z,52.60
2023-05-14T06:07:13.429Z,53.70
2023-05-14T06:09:39.934Z,55.90
2023-05-14T06:12:06.781Z,54.23
2023-05-14T06:14:33.446Z,55.80
2023-05-14T06:17:00.280Z,57.17
2023-05-14T06:19:26.967Z,57.27
2023-05-14T06:21:53.466Z,56.63
2023-05-14T06:24:20.279Z,59.37
2023-05-14T06:26:48.643Z,59.20
2023-05-14T06:29:15.219Z,62.10
2023-05-14T06:31:41.894Z,64.30
2023-05-14T06:34:09.043Z,65.50
2023-05-14T06:36:35.573Z,64.47
2023-05-14T06:39:02.097Z,63.30
2023-05-14T06:41:29.425Z,64.13
2023-05-14T06:43:55.937Z,64.07
2023-05-14T06:46:22.486Z,59.83
2023-05-14T06:48:49.124Z,55.07
2023-05-14T06:51:15.814Z,55.97
2023-05-14T06:53:42.354Z,46.57
2023-05-14T06:56:08.974Z,41.17
2023-05-14T06:58:35.516Z,35.93
2023-05-14T07:01:02.134Z,29.00
2023-05-14T07:03:29.032Z,24.13
2023-05-14T07:05:55.624Z,21.63
2023-05-14T07:08:22.201Z,19.20
2023-05-14T07:10:48.984Z,17.70
2023-05-14T07:13:15.534Z,18.33
2023-05-14T07:15:42.028Z,16.23
2023-05-14T07:18:08.645Z,15.27
2023-05-14T07:20:35.378Z,15.10
2023-05-14T07:23:01.951Z,15.50
2023-05-14T07:25:28.469Z,14.13
2023-05-14T07:27:55.626Z,14.33
2023-05-14T07:30:22.314Z,14.73
2023-05-14T07:32:49.073Z,14.17
2023-05-14T07:35:15.799Z,14.07
2023-05-14T07:37:42.857Z,13.35
2023-05-14T07:40:09.698Z,13.68
2023-05-14T07:42:37.356Z,15.52
2023-05-14T07:45:05.130Z,16.77
2023-05-14T07:47:31.935Z,18.25
2023-05-14T07:49:58.943Z,17.75
2023-05-14T07:52:25.659Z,17.73
2023-05-14T07:54:52.351Z,17.23
2023-05-14T07:57:19.867Z,18.50
2023-05-14T07:59:47.561Z,18.50
2023-05-14T08:02:15.767Z,17.83
2023-05-14T08:04:42.404Z,19.27
2023-05-14T08:07:09.245Z,16.50
2023-05-14T08:09:35.938Z,18.23
2023-05-14T08:12:02.604Z,18.33
2023-05-14T08:14:29.128Z,17.33
2023-05-14T08:16:55.871Z,17.80
2023-05-14T08:19:23.840Z,17.80
2023-05-14T08:21:51.306Z,18.20
2023-05-14T08:24:18.579Z,18.02
2023-05-14T08:26:45.077Z,16.75
2023-05-14T08:29:12.984Z,17.02
2023-05-14T08:31:41.236Z,16.77
2023-05-14T08:34:07.789Z,16.60
2023-05-14T08:36:34.345Z,16.95
2023-05-14T08:39:01.120Z,17.00
2023-05-14T08:41:27.648Z,17.13
2023-05-14T08:44:18.888Z,17.88
2023-05-14T08:46:45.764Z,18.00
2023-05-14T08:49:40.206Z,18.40
2023-05-14T08:52:08.573Z,16.50
2023-05-14T08:54:35.404Z,16.40
2023-05-14T08:57:04.411Z,16.52
2023-05-14T08:59:31.353Z,15.88
2023-05-14T09:02:01.457Z,15.95
2023-05-14T09:04:29.474Z,15.63
2023-05-14T09:06:57.223Z,15.60
2023-05-14T09:09:23.998Z,16.42
2023-05-14T09:11:52.667Z,15.57
2023-05-14T09:14:20.259Z,15.40
2023-05-14T09:16:48.647Z,14.88
2023-05-14T09:19:18.776Z,15.05
2023-05-14T09:21:46.779Z,14.35
2023-05-14T09:24:24.175Z,14.32
2023-05-14T09:26:56.095Z,13.90
2023-05-14T09:29:26.164Z,14.60
2023-05-14T09:31:54.995Z,14.32
2023-05-14T09:34:26.228Z,14.95
2023-05-14T09:37:04.159Z,13.68
2023-05-14T09:39:31.747Z,14.85
2023-05-14T09:41:58.718Z,14.38
2023-05-14T09:44:25.961Z,14.25
2023-05-14T09:46:53.685Z,13.75
2023-05-14T09:49:20.857Z,14.38
2023-05-14T09:51:49.106Z,15.23
2023-05-14T09:54:15.861Z,14.65
2023-05-14T09:56:43.503Z,15.25
2023-05-14T09:59:10.197Z,14.65
2023-05-14T10:01:38.289Z,14.75
2023-05-14T10:04:08.036Z,15.27
2023-05-14T10:06:37.749Z,14.55
2023-05-14T10:09:09.768Z,14.77
2023-05-14T10:11:38.529Z,14.35
2023-05-14T10:14:26.141Z,14.77
2023-05-14T10:16:54.029Z,14.52
2023-05-14T10:19:24.128Z,14.63
2023-05-14T10:21:56.816Z,18.50
2023-05-14T10:24:24.577Z,15.70
2023-05-14T10:26:51.523Z,15.68
2023-05-14T10:29:18.080Z,15.25
2023-05-14T10:31:56.040Z,16.15
2023-05-14T10:34:33.417Z,16.10
2023-05-14T10:37:02.431Z,21.20
2023-05-14T10:39:44.760Z,15.52
2023-05-14T10:42:17.136Z,15.40
2023-05-14T10:44:58.716Z,15.00
2023-05-14T10:47:32.719Z,15.77
2023-05-14T10:50:01.882Z,14.93
2023-05-14T10:52:29.299Z,14.65
2023-05-14T10:55:03.362Z,15.40
2023-05-14T10:57:31.856Z,15.43
2023-05-14T11:00:00.124Z,14.82
2023-05-14T11:02:28.224Z,14.85
2023-05-14T11:04:59.133Z,14.48
2023-05-14T11:07:30.157Z,14.63
2023-05-14T11:10:14.210Z,14.55
2023-05-14T11:12:43.171Z,14.90
2023-05-14T11:15:21.179Z,15.45
2023-05-14T11:17:49.601Z,15.27
2023-05-14T11:20:17.322Z,13.90
2023-05-14T11:22:45.292Z,15.32
2023-05-14T11:25:14.816Z,12.82
2023-05-14T11:27:44.518Z,13.65
2023-05-14T11:30:21.638Z,10.43
2023-05-14T11:32:49.738Z,11.00
2023-05-14T11:35:17.939Z,11.77
2023-05-14T11:37:51.983Z,11.05
2023-05-14T11:40:18.990Z,13.85
2023-05-14T11:42:45.842Z,13.65
2023-05-14T11:45:13.835Z,15.85
2023-05-14T11:47:43.414Z,15.75
2023-05-14T11:50:11.000Z,16.17
2023-05-14T11:52:41.374Z,14.93
2023-05-14T11:55:12.612Z,14.10
2023-05-14T11:57:39.550Z,14.77
2023-05-14T12:00:09.047Z,14.02
2023-05-14T12:02:37.276Z,13.70
2023-05-14T12:05:07.068Z,15.30
2023-05-14T12:07:33.579Z,15.63
2023-05-14T12:10:03.222Z,13.25
2023-05-14T12:12:35.554Z,14.40
2023-05-14T12:15:02.190Z,15.27
2023-05-14T12:17:28.765Z,13.77
2023-05-14T12:19:57.238Z,13.98
2023-05-14T12:22:23.808Z,13.82
2023-05-14T12:24:55.221Z,14.32
2023-05-14T12:27:24.261Z,13.32
2023-05-14T12:32:26.520Z,13.20
2023-05-14T12:34:53.033Z,14.75
2023-05-14T12:37:19.764Z,15.55
2023-05-14T12:39:46.306Z,15.98
2023-05-14T12:42:14.572Z,16.40
2023-05-14T12:44:41.083Z,16.45
2023-05-14T12:47:08.422Z,17.15
2023-05-14T12:49:35.102Z,16.17
2023-05-14T12:52:17.343Z,16.25
2023-05-14T12:54:48.264Z,14.95
2023-05-14T12:57:14.867Z,15.07
2023-05-14T12:59:41.420Z,13.88
2023-05-14T13:02:08.151Z,13.90
2023-05-14T13:04:34.789Z,14.88
2023-05-14T13:07:01.484Z,15.25
2023-05-14T13:09:28.235Z,14.70
2023-05-14T13:11:54.776Z,15.55
2023-05-14T13:14:21.329Z,15.10
2023-05-14T13:16:47.918Z,15.52
2023-05-14T13:19:14.561Z,13.15
2023-05-14T13:21:41.216Z,14.32
2023-05-14T13:24:09.907Z,13.45
2023-05-14T13:26:37.536Z,14.02
2023-05-14T13:29:04.339Z,13.77
2023-05-14T13:31:31.065Z,14.23
2023-05-14T13:33:59.245Z,14.68
2023-05-14T13:36:25.851Z,14.35
2023-05-14T13:38:52.462Z,14.02
2023-05-14T13:41:19.085Z,14.20
2023-05-14T13:43:45.600Z,13.88
2023-05-14T13:46:12.128Z,13.82
2023-05-14T13:48:38.795Z,12.75
2023-05-14T13:51:05.351Z,12.30
2023-05-14T13:53:31.905Z,13.38
2023-05-14T13:56:00.749Z,12.65
2023-05-14T13:58:27.993Z,12.60
2023-05-14T14:00:54.669Z,12.43
2023-05-14T14:03:21.360Z,11.52
2023-05-14T14:05:48.010Z,11.63
2023-05-14T14:08:23.452Z,10.30
2023-05-14T14:10:51.234Z,9.50
2023-05-14T14:13:17.774Z,8.68
2023-05-14T14:15:44.511Z,8.10
2023-05-14T14:18:11.183Z,7.95
2023-05-14T14:20:38.062Z,7.18
2023-05-14T14:23:04.560Z,7.05
2023-05-14T14:25:31.319Z,6.72
2023-05-14T14:27:57.984Z,7.78
2023-05-14T14:30:24.835Z,8.10
2023-05-14T14:32:51.619Z,8.25
2023-05-14T14:35:19.582Z,9.55
2023-05-14T14:37:50.397Z,7.25
2023-05-14T14:40:17.582Z,6.82
2023-05-14T14:42:44.493Z,7.20
2023-05-14T14:45:11.924Z,6.68
2023-05-14T14:47:38.709Z,6.80
2023-05-14T14:50:06.336Z,6.60
2023-05-14T14:52:33.077Z,6.30
2023-05-14T14:54:59.680Z,5.70
2023-05-14T14:57:26.770Z,4.90
2023-05-14T14:59:53.342Z,4.45
2023-05-14T15:02:20.132Z,5.00
2023-05-14T15:04:46.949Z,4.50
2023-05-14T15:07:15.778Z,4.40
2023-05-14T15:09:42.309Z,4.30
2023-05-14T15:12:10.048Z,4.18
2023-05-14T15:14:36.616Z,4.57
2023-05-14T15:17:03.311Z,4.20
2023-05-14T15:19:31.668Z,4.65
2023-05-14T15:21:58.483Z,4.30
2023-05-14T15:24:26.013Z,4.47
2023-05-14T15:26:53.703Z,3.75
2023-05-14T15:29:20.621Z,4.60
2023-05-14T15:31:47.407Z,4.30
2023-05-14T15:34:14.061Z,4.28
2023-05-14T15:36:40.818Z,4.25
2023-05-14T15:39:10.300Z,4.40
2023-05-14T15:41:37.114Z,4.45
2023-05-14T15:44:03.859Z,4.38
2023-05-14T15:46:30.760Z,3.90
2023-05-14T15:48:57.967Z,3.92
2023-05-14T15:51:24.598Z,4.15
2023-05-14T15:53:53.958Z,3.80
2023-05-14T15:56:21.820Z,4.25
2023-05-14T15:58:48.929Z,4.38
2023-05-14T16:01:15.667Z,4.78
2023-05-14T16:03:42.554Z,3.83
2023-05-14T16:06:09.439Z,4.13
2023-05-14T16:08:36.023Z,4.00
2023-05-14T16:11:02.638Z,3.75
2023-05-14T16:13:29.190Z,3.83
2023-05-14T16:15:55.881Z,3.90
2023-05-14T16:18:22.419Z,3.97
2023-05-14T16:20:48.965Z,3.97
2023-05-14T16:23:15.566Z,3.75
2023-05-14T16:25:42.200Z,3.88
2023-05-14T16:28:08.758Z,3.78
2023-05-14T16:30:35.436Z,4.00
2023-05-14T16:33:02.064Z,3.88
2023-05-14T16:35:28.830Z,3.70
2023-05-14T16:37:56.031Z,3.83
2023-05-14T16:40:23.469Z,3.83
2023-05-14T16:42:51.071Z,3.72
2023-05-14T16:45:17.873Z,4.10
2023-05-14T16:47:44.674Z,4.00
2023-05-14T16:50:11.547Z,3.95
2023-05-14T16:52:38.042Z,3.67
2023-05-14T16:55:05.046Z,4.40
2023-05-14T16:57:31.744Z,4.15
2023-05-14T16:59:58.285Z,4.18
2023-05-14T17:02:24.936Z,4.35
2023-05-14T17:04:51.592Z,3.90
2023-05-14T17:07:18.260Z,4.35
2023-05-14T17:09:44.795Z,4.22
2023-05-14T17:12:13.422Z,3.95
2023-05-14T17:14:39.998Z,3.97
2023-05-14T17:17:06.540Z,3.88
2023-05-14T17:19:33.077Z,4.25
2023-05-14T17:21:59.601Z,4.50
2023-05-14T17:24:26.114Z,4.18
2023-05-14T17:26:52.661Z,4.25
2023-05-14T17:29:19.358Z,4.20
2023-05-14T17:31:46.056Z,4.25
2023-05-14T17:34:12.586Z,4.20
2023-05-14T17:36:39.445Z,4.30
2023-05-14T17:39:06.091Z,4.28
2023-05-14T17:41:32.635Z,4.13
2023-05-14T17:43:59.293Z,5.20
2023-05-14T17:46:25.980Z,4.85
2023-05-14T17:48:52.494Z,5.38
2023-05-14T17:51:18.974Z,5.50
2023-05-14T17:53:46.095Z,5.32
2023-05-14T17:56:12.714Z,5.47
2023-05-14T17:58:39.271Z,5.60
2023-05-14T18:01:05.944Z,5.85
2023-05-14T18:03:32.642Z,5.60
2023-05-14T18:05:59.506Z,5.60
2023-05-14T18:08:26.057Z,5.67
2023-05-14T18:10:52.602Z,6.10
2023-05-14T18:13:19.136Z,5.67
2023-05-14T18:15:45.673Z,5.70
2023-05-14T18:18:12.498Z,5.90
2023-05-14T18:20:39.003Z,6.40
2023-05-14T18:23:05.549Z,6.10
2023-05-14T18:25:32.097Z,6.70
2023-05-14T18:27:59.807Z,6.23
2023-05-14T18:30:26.347Z,6.67
2023-05-14T18:32:53.008Z,5.77
2023-05-14T18:35:20.186Z,6.40
2023-05-14T18:37:47.435Z,6.57
2023-05-14T18:40:18.477Z,6.40
2023-05-14T18:42:45.581Z,6.80
2023-05-14T18:45:12.274Z,6.90
2023-05-14T18:47:39.833Z,6.67
2023-05-14T18:50:07.801Z,6.90
2023-05-14T18:52:34.405Z,6.80
2023-05-14T18:55:01.013Z,6.63
2023-05-14T18:57:29.227Z,7.17
2023-05-14T18:59:55.786Z,6.97
2023-05-14T19:02:22.432Z,6.53
2023-05-14T19:04:52.810Z,6.90
2023-05-14T19:07:20.786Z,6.80
2023-05-14T19:09:47.696Z,6.60
2023-05-14T19:12:15.891Z,7.10
2023-05-14T19:14:42.416Z,7.60
2023-05-14T19:17:09.358Z,6.97
2023-05-14T19:19:36.393Z,6.73
2023-05-14T19:22:02.980Z,7.40
2023-05-14T19:24:30.094Z,7.50
2023-05-14T19:26:56.626Z,7.70
2023-05-14T19:29:23.242Z,7.93
2023-05-14T19:31:49.945Z,8.07
2023-05-14T19:34:16.775Z,7.50
2023-05-14T19:36:43.398Z,7.30
2023-05-14T19:39:10.692Z,7.27
2023-05-14T19:41:37.274Z,7.20
2023-05-14T19:44:03.847Z,7.73
2023-05-14T19:46:30.488Z,7.47
2023-05-14T19:48:57.014Z,7.83
2023-05-14T19:51:23.527Z,7.70
2023-05-14T19:53:50.111Z,7.60
2023-05-14T19:56:16.767Z,8.10
2023-05-14T19:58:44.111Z,8.23
2023-05-14T20:01:11.811Z,8.83
2023-05-14T20:03:38.528Z,8.43
2023-05-14T20:06:05.462Z,8.30
2023-05-14T20:08:32.001Z,8.33
2023-05-14T20:10:58.558Z,8.40
2023-05-14T20:13:25.538Z,9.00
2023-05-14T20:15:52.300Z,9.73
2023-05-14T20:18:18.878Z,9.13
2023-05-14T20:20:45.412Z,10.20
2023-05-14T20:23:11.930Z,9.73
2023-05-14T20:25:38.629Z,10.43
2023-05-14T20:28:05.232Z,10.20
2023-05-14T20:30:32.056Z,10.13
2023-05-14T20:32:58.709Z,10.27
2023-05-14T20:35:25.932Z,10.30
2023-05-14T20:37:52.992Z,10.33
2023-05-14T20:40:19.587Z,11.43
2023-05-14T20:42:46.158Z,10.93
2023-05-14T20:45:12.788Z,10.77
2023-05-14T20:47:40.353Z,10.83
2023-05-14T20:50:07.596Z,11.20
2023-05-14T20:52:34.135Z,10.97
2023-05-14T20:55:02.045Z,12.37
2023-05-14T20:57:29.000Z,11.90
2023-05-14T20:59:55.539Z,12.40
2023-05-14T21:02:22.236Z,13.20
2023-05-14T21:04:48.985Z,13.90
2023-05-14T21:07:15.859Z,13.63
2023-05-14T21:09:43.508Z,14.80
2023-05-14T21:12:10.181Z,14.47
2023-05-14T21:14:36.751Z,14.50
2023-05-14T21:17:03.840Z,15.33
2023-05-14T21:19:30.354Z,16.10
2023-05-14T21:21:56.946Z,15.97
2023-05-14T21:24:23.479Z,17.80
2023-05-14T21:26:51.690Z,17.13
2023-05-14T21:29:20.005Z,17.40
2023-05-14T21:31:48.298Z,17.40
2023-05-14T21:34:14.861Z,19.30
2023-05-14T21:36:41.489Z,19.23
2023-05-14T21:39:08.124Z,20.07
2023-05-14T21:41:34.612Z,20.23
2023-05-14T21:44:01.208Z,19.90
2023-05-14T21:46:28.812Z,21.03
2023-05-14T21:48:56.460Z,21.87
2023-05-14T21:51:23.135Z,20.87
2023-05-14T21:53:49.864Z,22.37
2023-05-14T21:56:16.465Z,22.43
2023-05-14T21:58:44.044Z,24.23
2023-05-14T22:01:11.426Z,24.10
2023-05-14T22:03:38.465Z,23.93
2023-05-14T22:06:05.626Z,24.90
2023-05-14T22:08:32.185Z,27.37
2023-05-14T22:10:58.955Z,28.13
2023-05-14T22:13:25.544Z,28.67
2023-05-14T22:16:01.579Z,27.57
2023-05-14T22:18:38.683Z,27.67
2023-05-14T22:21:05.441Z,28.63
2023-05-14T22:23:31.969Z,28.43
2023-05-14T22:25:58.570Z,29.47
2023-05-14T22:28:25.168Z,28.87
2023-05-14T22:30:51.735Z,29.90
2023-05-14T22:33:19.187Z,30.43
2023-05-14T22:35:45.963Z,31.30
2023-05-14T22:38:13.803Z,30.20
2023-05-14T22:40:40.424Z,32.03
2023-05-14T22:43:06.957Z,32.43
2023-05-14T22:45:33.619Z,31.60
2023-05-14T22:48:00.242Z,34.33
2023-05-14T22:50:26.840Z,34.10
2023-05-14T22:52:53.383Z,33.63
2023-05-14T22:55:19.910Z,33.70
2023-05-14T22:57:46.627Z,34.40
2023-05-14T23:00:13.752Z,35.37
2023-05-14T23:02:40.738Z,34.53
2023-05-14T23:05:08.628Z,34.60
2023-05-14T23:07:35.434Z,35.63
2023-05-14T23:10:02.211Z,34.80
2023-05-14T23:12:29.152Z,36.40
2023-05-14T23:14:56.163Z,36.80
2023-05-14T23:17:22.778Z,37.20
2023-05-14T23:19:49.435Z,38.63
2023-05-14T23:22:16.093Z,37.33
2023-05-14T23:24:42.644Z,37.23
2023-05-14T23:27:11.021Z,36.70
2023-05-14T23:29:37.520Z,36.87
2023-05-14T23:32:04.251Z,38.03
2023-05-14T23:34:30.892Z,39.10
2023-05-14T23:36:57.424Z,37.03
2023-05-14T23:39:24.041Z,39.90
2023-05-14T23:41:50.806Z,40.20
2023-05-14T23:44:17.394Z,38.70
2023-05-14T23:46:44.149Z,39.40
2023-05-14T23:49:10.911Z,37.70
2023-05-14T23:51:37.644Z,39.37
2023-05-14T23:54:04.530Z,39.13
2023-05-14T23:56:31.051Z,41.87
2023-05-14T23:58:57.641Z,39.43
